Strona główna
METAR-TAF:

METAR-TAF

Lotnisko :

Port lotniczy Aberdeen

Aberdeen, Dakota Południowa, Stany Zjednoczone

Szerokość geograficzna: 45-26-36N, Długość geograficzna: 098-24-47W, wysokość: 396 m

Aktualna obserwacja pogody

Raport powstał 1 godzina i 5 minut temu, godzina 21:53 UTC
Wiatr 19 kt od północ w porywach dochodzący do 32 kt
Temperatura 6°C
Wilgotność 56%
Ciśnienie 1016 hPa
Widzialność: 16.1 km
Zachmurzenie całkowite na wysokości 2000 ft

METAR: KABR 182153Z AUTO 01019G32KT 10SM OVC020 06/M02 A2999 RMK AO2 PK WND 01036/2122 SLP166 T00561017

czas: 17:58 (22:58 UTC)

Prognoza

Raport powstał 2 godziny i 24 minut temu, godzina 20:34 UTC
Prognoza ważna od 18 godzina 21 UTC do 19 godzina 18 UTC
Wiatr 22 kt od północ w porywach dochodzący do 30 kt
Widzialność: 10 km
Zachmurzenie całkowite na wysokości 2500 ft
Od 19 godzina 0200 UTC
Wiatr 11 kt od północ
Widzialność: 10 km
Zachmurzenie całkowite na wysokości 8000 ft

TAF: KABR 182034Z 1821/1918 36022G30KT P6SM OVC025 FM190200 36011KT P6SM OVC080

Obserwacja i prognoza pogody dla ponad 4000 lotnisk (raport METAR i TAF).

Dostępne stacje oznaczono żółtymi i czerwonymi punktami na mapie.

Najedź kursorem aby zobaczyć nazwę stacji.

Kliknij aby zobaczyć obserwacje i prognozy pogody.

Aby zmienić mapę: kliknij na zielony przycisk z czarnym krzyżykiem, aby powiększyć; na zielony przycisk z myślnikiem, aby pomniejszyć; na zielone strzałki, aby przejść do map sąsiednich.


METAR-TAF: